x

Virginia Beach 64 Nm East Of Virginia Beach, Va (44014) Wave Buoy

2:50 - Sun 25th Jan 2015 All times are EST. -5 hours from GMT.

  • Sig Wave height 4.3ft
  • Swell Direction
  • Peak Period 10s
  • Average Period 6s
  • Wind
    7mph, 9mph gusts
  • Sea Temp 53°f
  • Ar Temp 46°f
  • Sea Pressure 1012.1mb
  • Virginia Beach 64 Nm East Of Virginia Beach, Va
  • Virginia Beach 64 Nm East Of Virginia Beach, Va

More Historic Weather Station data

Upgrade to MSW Pro to gain access to the past 30 days of data for over 8000 Wavebouys and Weather Stations around the globe.

Join Pro

Comparision Forecast

View Surf forecast
   
Dom 01/25 2:50 4.5ft 10s 6s 7 9 mph 1012.1mb 53f 46f
1:50 4.5ft 10s 6s 4 7 mph 1012mb 53f 47f
12:50 4.5ft 11s 6s 9 11 mph 1013.1mb 53f 46f
11:50 5ft 8s 5s 11 13 mph 1013.3mb 53f 46f
10:50 4.5ft 5s 5s 11 13 mph 1013.5mb 53f 46f
9:50 5.5ft 6s 5s 16 20 mph 1012.6mb 53f 45f
8:50 6ft 6s 5s 20 25 mph 1012.2mb 52f 45f
7:50 6ft 6s 5s 27 29 mph 1011.5mb 52f 45f
6:50 6ft 6s 5s 20 22 mph 1010.6mb 52f 44f
5:50 6ft 11s 6s 20 25 mph 1009.4mb 52f 44f
4:50 6.5ft 11s 5s 20 25 mph 1008.5mb 52f 44f
3:50 7ft 6s 6s 22 27 mph 1007.5mb 52f 44f
2:50 8ft 11s 6s 22 29 mph 1007.3mb 53f 45f
1:50 8ft 11s 6s 25 29 mph 1006.6mb 53f 45f
12:50 8ft 11s 6s 25 29 mph 1005.7mb 53f 46f
Sáb 01/24 11:50 8ft 12s 6s 27 31 mph 1005.1mb 53f 46f
10:50 8ft 11s 6s 27 31 mph 1004.4mb 53f 47f
9:50 8ft 6s 6s 25 29 mph 1004mb 53f 46f
8:50 9ft 11s 6s 27 34 mph 1003.4mb 53f 46f
7:50 10ft 7s 6s 27 34 mph 1002.4mb 53f 45f
6:50 10ft 7s 6s 27 34 mph 1001.2mb 53f 45f
5:50 10ft 7s 6s 31 38 mph 998.9mb 52f 44f
4:50 10ft 11s 6s 31 38 mph 997.6mb 52f 44f
3:50 10.5ft 11s 6s 31 40 mph 996.9mb 52f 42f
2:50 11ft 11s 7s 29 38 mph 995.2mb 53f 42f
1:50 10ft 11s 7s 25 31 mph 993.1mb 53f 43f
12:50 11ft 11s 7s 25 31 mph 992.9mb 53f 43f
11:50 11ft 10s 7s 25 29 mph 992.8mb 53f 44f
10:50 10ft 9s 7s 18 25 mph 994.9mb 54f 45f
9:50 11ft 10s 7s 16 20 mph 994.8mb 54f 47f
8:50 12.5ft 10s 8s 18 22 mph 996.2mb 54f 46f
7:50 11.5ft 10s 7s 20 27 mph 997.1mb 54f -
6:50 11ft 9s 7s 20 25 mph 996.9mb 54f 59f
5:50 13ft 10s 7s 22 27 mph 997.3mb 54f 60f
4:50 13ft 9s 7s 22 31 mph 998.5mb 54f 60f
3:50 10.5ft 8s 7s 29 36 mph 1000mb 54f 61f
2:50 10ft 8s 6s 29 34 mph 1002.2mb 55f 61f
1:50 9ft 7s 6s 29 38 mph 1004.8mb 56f 60f
12:50 7ft 6s 5s 29 36 mph 1007mb 56f 59f
Sex 01/23 11:50 6ft 6s 5s 27 34 mph 1009.4mb 55f 58f
10:50 4.5ft 9s 5s 27 34 mph 1011.9mb 55f 58f
9:50 3.5ft 10s 5s 25 29 mph 1014mb 55f 58f
8:50 3.5ft 10s 5s 20 22 mph 1015.4mb 55f 55f
7:50 3.5ft 10s 6s 16 18 mph 1017.9mb 55f 52f
6:50 3.5ft 11s 6s 13 18 mph 1019.1mb 55f 51f
5:50 3.5ft 8s 6s 11 13 mph 1020mb 55f 49f
4:50 3.5ft 9s 6s 9 11 mph 1021.1mb 56f 48f
3:50 3.5ft 10s 6s 7 9 mph 1022mb 57f 48f
2:50 3.5ft 10s 6s 7 9 mph 1022.4mb 58f 47f
1:50 3.5ft 8s 5s 7 9 mph 1023.2mb 58f 47f
12:50 3.5ft 7s 5s 4 7 mph 1024.4mb 58f 47f
11:50 3.5ft 8s 5s 7 9 mph 1025.2mb 58f 46f
10:50 3.5ft 8s 5s 9 13 mph 1025.9mb 58f 46f
9:50 3.5ft 8s 5s 11 13 mph 1026.7mb 58f 46f
8:50 3.5ft 8s 5s 13 18 mph 1026.6mb 58f 45f
7:50 3.5ft 7s 5s 13 16 mph 1027mb 58f 45f
6:50 3.5ft 8s 5s 11 16 mph 1027.9mb 57f 45f
5:50 3.5ft 6s 5s 13 18 mph 1027.4mb 57f 45f
4:50 3.5ft 6s 5s 16 20 mph 1026.7mb 57f 45f
3:50 3.5ft 6s 4s 16 20 mph 1027mb 56f 45f
2:50 3.5ft 6s 4s 18 20 mph 1027.5mb 56f 45f
1:50 3.5ft 5s 5s 18 20 mph 1027.3mb 56f 45f
12:50 3.5ft 7s 5s 16 22 mph 1026.9mb 56f 45f
Qui 01/22 11:50 3.5ft 4s 5s 16 20 mph 1027.2mb 56f 46f
10:50 4ft 6s 5s 18 20 mph 1027.2mb 56f 46f
9:50 4ft 5s 5s 16 22 mph 1027.4mb 57f 46f
8:50 3.5ft 8s 4s 18 22 mph 1027.1mb 57f 46f
7:50 3.5ft 7s 5s 16 22 mph 1027.4mb 56f 45f
6:50 3.5ft 7s 5s 16 20 mph 1027.6mb 56f 45f
5:50 3.5ft 8s 5s 20 25 mph 1026.3mb 55f 45f
4:50 3.5ft 7s 5s 18 20 mph 1025.7mb 53f 44f
3:50 4ft 7s 5s 13 18 mph 1025.3mb 53f 43f
2:50 4ft 7s 5s 16 20 mph 1024.9mb 53f 42f
1:50 4ft 8s 6s 13 18 mph 1024.5mb 54f 43f
12:50 4ft 7s 6s 11 16 mph 1024.7mb 55f 43f
11:50 4.5ft 7s 6s 11 13 mph 1024.9mb 60f 43f
10:50 3.5ft 7s 5s 9 11 mph 1025.4mb 60f 43f
9:50 4ft 6s 6s 11 13 mph 1025mb 60f 43f
8:50 4ft 7s 6s 7 11 mph 1024.3mb 59f 44f
7:50 4.5ft 7s 6s 9 13 mph 1023.6mb 59f 44f
6:50 4.5ft 7s 5s 9 13 mph 1023mb 55f 44f
5:50 5ft 7s 5s 11 13 mph 1022.2mb 55f 44f
4:50 5ft 7s 5s 13 16 mph 1021.9mb 55f 45f
3:50 5ft 7s 5s 16 18 mph 1021.2mb 54f 46f
2:50 5.5ft 7s 5s 13 16 mph 1020.9mb 54f 47f
1:50 5ft 7s 5s 16 18 mph 1020.6mb 54f 47f
12:50 6ft 7s 5s 20 22 mph 1020.4mb 54f 48f
Qua 01/21 11:50 7ft 7s 5s 18 22 mph 1020mb 54f 49f
10:50 7ft 7s 5s 18 22 mph 1019.6mb 55f 49f
9:50 6.5ft 6s 5s 20 22 mph 1019mb 55f 49f
8:50 7ft 7s 5s 20 25 mph 1017.7mb 55f 49f